createdAt,value
2019-05-22T00:00:49.241Z,99182.84
2019-05-22T00:03:27.404Z,99179.66
2019-05-22T00:05:58.400Z,99190.36
2019-05-22T00:08:30.157Z,99194.46
2019-05-22T00:11:02.282Z,99180.91
2019-05-22T00:13:35.665Z,99189.56
2019-05-22T00:16:08.548Z,99182.19
2019-05-22T00:18:39.922Z,99190.22
2019-05-22T00:21:10.166Z,99184.09
2019-05-22T00:23:42.534Z,99186.50
2019-05-22T00:26:15.267Z,99180.75
2019-05-22T00:28:47.848Z,99176.48
2019-05-22T00:31:18.152Z,99172.77
2019-05-22T00:33:49.234Z,99175.64
2019-05-22T00:36:20.743Z,99175.42
2019-05-22T00:38:51.170Z,99166.72
2019-05-22T00:41:24.050Z,99169.75
2019-05-22T00:43:56.867Z,99174.82
2019-05-22T00:46:28.417Z,99177.28
2019-05-22T00:48:59.910Z,99169.33
2019-05-22T00:51:35.786Z,99167.81
2019-05-22T00:54:25.887Z,99173.13
2019-05-22T00:56:57.751Z,99170.94
2019-05-22T00:59:36.372Z,99170.30
2019-05-22T01:02:08.235Z,99165.61
2019-05-22T01:04:42.955Z,99171.77
2019-05-22T01:07:17.760Z,99172.02
2019-05-22T01:09:48.931Z,99173.91
2019-05-22T01:12:29.855Z,99168.75
2019-05-22T01:15:05.536Z,99166.03
2019-05-22T01:17:38.421Z,99168.18
2019-05-22T01:20:12.825Z,99162.28
2019-05-22T01:22:42.477Z,99155.58
2019-05-22T01:25:16.440Z,99152.56
2019-05-22T01:27:48.800Z,99160.58
2019-05-22T01:30:37.029Z,99160.05
2019-05-22T01:33:14.132Z,99164.50
2019-05-22T01:35:50.298Z,99162.37
2019-05-22T01:38:23.561Z,99160.08
2019-05-22T01:40:56.275Z,99159.31
2019-05-22T01:43:28.136Z,99152.16
2019-05-22T01:46:03.497Z,99163.55
2019-05-22T01:48:40.307Z,99160.61
2019-05-22T01:51:11.507Z,99158.46
2019-05-22T01:53:44.338Z,99160.17
2019-05-22T01:56:17.217Z,99164.92
2019-05-22T01:58:50.072Z,99168.30
2019-05-22T02:01:22.202Z,99158.98
2019-05-22T02:03:55.413Z,99149.84
2019-05-22T02:06:26.897Z,99160.16
2019-05-22T02:09:31.357Z,99151.22
2019-05-22T02:12:09.005Z,99148.45
2019-05-22T02:14:42.625Z,99152.39
2019-05-22T02:17:13.331Z,99155.23
2019-05-22T02:19:46.291Z,99167.60
2019-05-22T02:22:17.413Z,99163.45
2019-05-22T02:24:51.921Z,99155.61
2019-05-22T02:27:24.282Z,99156.15
2019-05-22T02:29:55.611Z,99167.05
2019-05-22T02:32:27.764Z,99162.56
2019-05-22T02:35:00.171Z,99161.80
2019-05-22T02:37:32.877Z,99159.27
2019-05-22T02:40:04.817Z,99169.38
2019-05-22T02:42:36.950Z,99161.66
2019-05-22T02:45:10.779Z,99167.13
2019-05-22T02:47:43.019Z,99171.82
2019-05-22T02:50:16.969Z,99160.52
2019-05-22T02:52:47.921Z,99164.91
2019-05-22T02:55:19.149Z,99167.91
2019-05-22T02:57:50.043Z,99174.53
2019-05-22T03:00:22.641Z,99168.73
2019-05-22T03:02:57.538Z,99177.36
2019-05-22T03:05:28.327Z,99171.63
2019-05-22T03:08:00.318Z,99170.95
2019-05-22T03:10:32.818Z,99170.11
2019-05-22T03:13:04.456Z,99173.05
2019-05-22T03:15:35.242Z,99161.45
2019-05-22T03:18:08.943Z,99169.59
2019-05-22T03:20:40.321Z,99159.00
2019-05-22T03:23:36.519Z,99164.44
2019-05-22T03:26:10.811Z,99168.38
2019-05-22T03:28:42.305Z,99162.73
2019-05-22T03:31:13.072Z,99157.09
2019-05-22T03:33:44.457Z,99160.93
2019-05-22T03:36:17.238Z,99163.25
2019-05-22T03:38:48.906Z,99178.20
2019-05-22T03:41:19.609Z,99174.98
2019-05-22T03:43:51.135Z,99173.70
2019-05-22T03:46:26.126Z,99186.52
2019-05-22T03:48:57.594Z,99178.83
2019-05-22T03:51:28.192Z,99186.16
2019-05-22T03:53:58.473Z,99193.58
2019-05-22T03:56:30.034Z,99191.51
2019-05-22T03:59:02.648Z,99171.70
2019-05-22T04:01:34.553Z,99173.50
2019-05-22T04:04:07.555Z,99181.47
2019-05-22T04:06:40.267Z,99178.47
2019-05-22T04:09:19.847Z,99183.25
2019-05-22T04:11:50.597Z,99182.39
2019-05-22T04:14:22.109Z,99175.16
2019-05-22T04:16:52.838Z,99175.94
2019-05-22T04:19:23.933Z,99173.75
2019-05-22T04:21:55.255Z,99182.08
2019-05-22T04:24:26.250Z,99178.57
2019-05-22T04:26:57.402Z,99186.77
2019-05-22T04:29:28.432Z,99178.98
2019-05-22T04:32:07.048Z,99189.12
2019-05-22T04:34:37.606Z,99192.91
2019-05-22T04:37:10.647Z,99196.28
2019-05-22T04:39:41.629Z,99208.96
2019-05-22T04:42:12.714Z,99200.12
2019-05-22T04:45:03.401Z,99199.41
2019-05-22T04:47:35.551Z,99201.63
2019-05-22T04:50:10.735Z,99200.22
2019-05-22T04:52:42.274Z,99210.09
2019-05-22T04:55:13.599Z,99220.59
2019-05-22T04:57:44.588Z,99227.63
2019-05-22T05:00:16.614Z,99222.63
2019-05-22T05:02:47.635Z,99223.61
2019-05-22T05:05:19.396Z,99217.38
2019-05-22T05:07:52.314Z,99214.39
2019-05-22T05:10:24.424Z,99214.95
2019-05-22T05:12:57.760Z,99216.66
2019-05-22T05:15:28.010Z,99211.23
2019-05-22T05:17:58.412Z,99201.98
2019-05-22T05:20:29.068Z,99202.46
2019-05-22T05:22:59.974Z,99209.06
2019-05-22T05:25:31.247Z,99212.53
2019-05-22T05:28:02.955Z,99224.33
2019-05-22T05:30:34.297Z,99213.95
2019-05-22T05:33:05.618Z,99225.38
2019-05-22T05:35:37.411Z,99225.53
2019-05-22T05:38:08.380Z,99218.55
2019-05-22T05:40:43.074Z,99232.98
2019-05-22T05:43:16.511Z,99223.84
2019-05-22T05:45:50.792Z,99243.91
2019-05-22T05:48:22.930Z,99242.56
2019-05-22T05:51:08.414Z,99246.66
2019-05-22T05:54:03.151Z,99243.06
2019-05-22T05:56:37.168Z,99249.77
2019-05-22T05:59:09.446Z,99241.09
2019-05-22T06:01:42.130Z,99250.47
2019-05-22T06:04:13.400Z,99242.05
2019-05-22T06:06:51.980Z,99244.09
2019-05-22T06:09:24.913Z,99243.27
2019-05-22T06:11:59.624Z,99234.81
2019-05-22T06:14:32.283Z,99234.88
2019-05-22T06:17:36.072Z,99244.32
2019-05-22T06:20:12.414Z,99246.41
2019-05-22T06:22:45.177Z,99248.25
2019-05-22T06:25:17.570Z,99242.70
2019-05-22T06:27:52.684Z,99240.38
2019-05-22T06:30:41.187Z,99243.78
2019-05-22T06:33:26.155Z,99247.16
2019-05-22T06:35:57.115Z,99245.95
2019-05-22T06:38:50.088Z,99247.84
2019-05-22T06:41:23.174Z,99240.00
2019-05-22T06:44:27.403Z,99242.94
2019-05-22T06:46:58.745Z,99247.47
2019-05-22T06:49:35.048Z,99250.01
2019-05-22T06:52:07.191Z,99255.56
2019-05-22T06:54:38.813Z,99251.23
2019-05-22T06:57:12.427Z,99253.09
2019-05-22T06:59:43.503Z,99250.72
2019-05-22T07:02:17.263Z,99260.27
2019-05-22T07:04:48.838Z,99256.06
2019-05-22T07:07:21.568Z,99254.61
2019-05-22T07:09:53.003Z,99266.78
2019-05-22T07:12:24.974Z,99265.74
2019-05-22T07:15:07.621Z,99253.36
2019-05-22T07:17:40.611Z,99260.48
2019-05-22T07:20:13.156Z,99255.41
2019-05-22T07:22:45.534Z,99252.68
2019-05-22T07:25:16.323Z,99262.80
2019-05-22T07:27:46.787Z,99263.60
2019-05-22T07:30:18.040Z,99266.00
2019-05-22T07:32:48.525Z,99263.78
2019-05-22T07:35:19.364Z,99257.72
2019-05-22T07:37:50.953Z,99266.45
2019-05-22T07:40:22.806Z,99254.04
2019-05-22T07:42:54.447Z,99261.31
2019-05-22T07:45:29.295Z,99261.02
2019-05-22T07:48:01.693Z,99269.03
2019-05-22T07:50:37.520Z,99268.69
2019-05-22T07:53:09.774Z,99275.56
2019-05-22T07:55:41.537Z,99268.63
2019-05-22T07:58:17.166Z,99274.59
2019-05-22T08:00:55.263Z,99290.72
2019-05-22T08:03:26.316Z,99293.03
2019-05-22T08:05:58.771Z,99296.92
2019-05-22T08:08:33.233Z,99307.27
2019-05-22T08:11:05.822Z,99303.18
2019-05-22T08:13:37.962Z,99302.16
2019-05-22T08:16:09.893Z,99291.89
2019-05-22T08:18:40.784Z,99287.95
2019-05-22T08:21:12.265Z,99296.81
2019-05-22T08:23:42.993Z,99291.25
2019-05-22T08:26:15.880Z,99289.81
2019-05-22T08:28:46.950Z,99297.47
2019-05-22T08:31:21.305Z,99290.23
2019-05-22T08:33:53.196Z,99310.30
2019-05-22T08:36:24.426Z,99305.11
2019-05-22T08:38:55.094Z,99309.16
2019-05-22T08:41:29.042Z,99323.84
2019-05-22T08:44:15.219Z,99324.27
2019-05-22T08:46:34.085Z,99329.21
2019-05-22T08:49:07.326Z,99322.80
2019-05-22T08:51:38.901Z,99326.26
2019-05-22T08:54:09.931Z,99338.80
2019-05-22T08:56:44.999Z,99342.70
2019-05-22T08:59:19.902Z,99338.58
2019-05-22T09:01:49.536Z,99329.52
2019-05-22T09:04:21.240Z,99346.19
2019-05-22T09:06:52.231Z,99346.14
2019-05-22T09:09:23.554Z,99349.35
2019-05-22T09:11:54.175Z,99351.88
2019-05-22T09:14:24.816Z,99350.60
2019-05-22T09:16:57.693Z,99352.58
2019-05-22T09:19:29.407Z,99363.08
2019-05-22T09:22:00.874Z,99362.05
2019-05-22T09:24:33.981Z,99370.48
2019-05-22T09:27:05.692Z,99363.75
2019-05-22T09:29:36.206Z,99366.27
2019-05-22T09:32:07.757Z,99377.92
2019-05-22T09:34:39.435Z,99376.25
2019-05-22T09:37:10.018Z,99367.71
2019-05-22T09:39:41.387Z,99375.42
2019-05-22T09:42:13.328Z,99371.94
2019-05-22T09:44:44.457Z,99362.56
2019-05-22T09:47:16.009Z,99368.81
2019-05-22T09:49:49.564Z,99373.02
2019-05-22T09:52:20.611Z,99369.64
2019-05-22T09:54:51.633Z,99378.66
2019-05-22T09:57:22.705Z,99379.12
2019-05-22T09:59:53.081Z,99371.31
2019-05-22T10:02:26.151Z,99380.69
2019-05-22T10:04:57.096Z,99376.84
2019-05-22T10:07:27.450Z,99384.84
2019-05-22T10:09:57.692Z,99389.50
2019-05-22T10:12:29.880Z,99389.76
2019-05-22T10:15:01.549Z,99388.67
2019-05-22T10:17:34.533Z,99387.58
2019-05-22T10:20:08.975Z,99382.16
2019-05-22T10:22:40.792Z,99395.90
2019-05-22T10:25:16.491Z,99390.87
2019-05-22T10:27:48.834Z,99398.27
2019-05-22T10:30:24.934Z,99401.64
2019-05-22T10:32:56.397Z,99405.39
2019-05-22T10:35:29.121Z,99408.78
2019-05-22T10:38:00.066Z,99411.30
2019-05-22T10:40:30.774Z,99408.66
2019-05-22T10:43:01.079Z,99416.34
2019-05-22T10:45:32.246Z,99417.89
2019-05-22T10:48:03.633Z,99420.01
2019-05-22T10:50:34.949Z,99422.77
2019-05-22T10:53:06.407Z,99416.69
2019-05-22T10:55:37.685Z,99422.47
2019-05-22T10:58:08.989Z,99430.83
2019-05-22T11:00:39.979Z,99431.61
2019-05-22T11:03:12.008Z,99434.30
2019-05-22T11:05:44.266Z,99446.02
2019-05-22T11:08:14.740Z,99442.88
2019-05-22T11:10:46.315Z,99436.95
2019-05-22T11:13:17.609Z,99438.13
2019-05-22T11:15:48.671Z,99439.02
2019-05-22T11:18:19.688Z,99436.66
2019-05-22T11:20:51.448Z,99436.41
2019-05-22T11:23:21.949Z,99431.19
2019-05-22T11:25:52.553Z,99442.23
2019-05-22T11:28:24.409Z,99445.30
2019-05-22T11:30:56.469Z,99434.83
2019-05-22T11:33:27.335Z,99449.92
2019-05-22T11:35:58.865Z,99444.20
2019-05-22T11:38:30.436Z,99446.03
2019-05-22T11:41:01.407Z,99449.39
2019-05-22T11:43:33.407Z,99453.94
2019-05-22T11:46:05.009Z,99444.30
2019-05-22T11:48:35.768Z,99453.16
2019-05-22T11:51:06.934Z,99460.40
2019-05-22T11:53:37.814Z,99460.93
2019-05-22T11:56:08.253Z,99452.52
2019-05-22T11:58:39.087Z,99450.07
2019-05-22T12:01:09.668Z,99446.96
2019-05-22T12:03:42.316Z,99453.94
2019-05-22T12:06:14.435Z,99446.95
2019-05-22T12:08:47.460Z,99440.38
2019-05-22T12:11:20.371Z,99446.14
2019-05-22T12:13:51.280Z,99450.48
2019-05-22T12:16:24.647Z,99453.30
2019-05-22T12:18:58.430Z,99449.30
2019-05-22T12:21:26.945Z,99456.16
2019-05-22T12:23:57.554Z,99455.13
2019-05-22T12:26:28.691Z,99458.48
2019-05-22T12:28:59.232Z,99458.43
2019-05-22T12:31:30.108Z,99455.76
2019-05-22T12:34:01.858Z,99444.01
2019-05-22T12:36:33.963Z,99453.46
2019-05-22T12:39:09.427Z,99447.91
2019-05-22T12:41:40.842Z,99458.02
2019-05-22T12:44:12.078Z,99456.22
2019-05-22T12:46:43.703Z,99438.53
2019-05-22T13:02:42.881Z,99458.51
2019-05-22T13:05:14.610Z,99450.20
2019-05-22T13:07:56.375Z,99456.22
2019-05-22T13:10:29.055Z,99459.17
2019-05-22T13:13:01.509Z,99453.19
2019-05-22T13:15:33.106Z,99456.69
2019-05-22T13:18:03.855Z,99458.43
2019-05-22T13:20:43.129Z,99442.91
2019-05-22T13:23:13.920Z,99448.58
2019-05-22T13:25:45.977Z,99446.03
2019-05-22T13:28:18.433Z,99434.84
2019-05-22T13:30:52.820Z,99454.44
2019-05-22T13:33:26.972Z,99454.59
2019-05-22T13:35:57.839Z,99449.23
2019-05-22T13:38:28.422Z,99452.12
2019-05-22T13:41:00.303Z,99447.26
2019-05-22T13:43:31.308Z,99442.64
2019-05-22T13:46:02.747Z,99441.34
2019-05-22T13:48:34.178Z,99449.80
2019-05-22T13:51:07.458Z,99450.64
2019-05-22T13:53:38.240Z,99449.95
2019-05-22T13:56:11.265Z,99449.16
2019-05-22T13:58:43.587Z,99451.86
2019-05-22T14:01:14.532Z,99461.84
2019-05-22T14:03:45.711Z,99446.84
2019-05-22T14:06:16.104Z,99448.88
2019-05-22T14:08:47.143Z,99447.71
2019-05-22T14:11:19.597Z,99449.96
2019-05-22T14:13:52.505Z,99455.30
2019-05-22T14:16:23.198Z,99448.14
2019-05-22T14:18:53.909Z,99451.38
2019-05-22T14:21:24.692Z,99455.97
2019-05-22T14:23:55.405Z,99460.86
2019-05-22T14:26:29.585Z,99462.53
2019-05-22T14:28:58.498Z,99461.38
2019-05-22T14:31:28.785Z,99460.19
2019-05-22T14:33:59.814Z,99452.63
2019-05-22T14:36:31.253Z,99462.37
2019-05-22T14:39:03.793Z,99463.13
2019-05-22T14:41:34.319Z,99472.58
2019-05-22T14:44:05.696Z,99482.74
2019-05-22T14:46:36.010Z,99469.82
2019-05-22T14:49:07.260Z,99472.72
2019-05-22T14:51:38.647Z,99470.38
2019-05-22T14:54:12.297Z,99464.73
2019-05-22T14:56:45.901Z,99467.77
2019-05-22T14:59:18.003Z,99472.41
2019-05-22T15:01:52.038Z,99469.09
2019-05-22T15:04:26.114Z,99453.91
2019-05-22T15:06:57.376Z,99458.02
2019-05-22T15:09:28.468Z,99451.42
2019-05-22T15:12:02.605Z,99459.95
2019-05-22T15:14:35.358Z,99448.38
2019-05-22T15:17:07.909Z,99456.17
2019-05-22T15:19:38.851Z,99460.53
2019-05-22T15:22:09.661Z,99455.22
2019-05-22T15:24:39.985Z,99461.16
2019-05-22T15:27:12.526Z,99470.00
2019-05-22T15:29:43.560Z,99465.38
2019-05-22T15:32:16.387Z,99476.42
2019-05-22T15:34:48.791Z,99469.48
2019-05-22T15:37:26.545Z,99471.72
2019-05-22T15:40:00.721Z,99478.23
2019-05-22T15:42:33.627Z,99476.79
2019-05-22T15:45:07.347Z,99482.32
2019-05-22T15:47:54.793Z,99478.47
2019-05-22T15:50:17.608Z,99483.08
2019-05-22T15:52:52.195Z,99476.14
2019-05-22T15:55:25.495Z,99485.88
2019-05-22T15:57:58.613Z,99484.97
2019-05-22T16:00:35.535Z,99482.59
2019-05-22T16:03:17.101Z,99479.50
2019-05-22T16:05:49.444Z,99489.23
2019-05-22T16:08:26.114Z,99487.20
2019-05-22T16:11:00.792Z,99488.16
2019-05-22T16:13:34.049Z,99476.13
2019-05-22T16:16:06.489Z,99482.06
2019-05-22T16:18:39.556Z,99489.93
2019-05-22T16:21:12.383Z,99482.52
2019-05-22T16:23:44.645Z,99484.73
2019-05-22T16:26:15.548Z,99485.56
2019-05-22T16:28:47.987Z,99499.82
2019-05-22T16:31:21.769Z,99505.78
2019-05-22T16:33:53.666Z,99510.44
2019-05-22T16:36:25.832Z,99502.43
2019-05-22T16:38:58.081Z,99502.40
2019-05-22T16:41:30.936Z,99512.13
2019-05-22T16:44:01.316Z,99513.37
2019-05-22T16:46:33.728Z,99508.20
2019-05-22T16:49:05.483Z,99514.11
2019-05-22T16:51:36.641Z,99512.80
2019-05-22T16:54:09.634Z,99515.20
2019-05-22T16:56:41.907Z,99519.17
2019-05-22T16:59:14.742Z,99519.89
2019-05-22T17:01:58.712Z,99514.27
2019-05-22T17:10:25.739Z,99529.52
2019-05-22T17:12:58.568Z,99526.25
2019-05-22T17:15:29.753Z,99519.26
2019-05-22T17:18:00.260Z,99522.02
2019-05-22T17:20:32.290Z,99527.52
2019-05-22T17:23:02.958Z,99520.59
2019-05-22T17:25:34.115Z,99524.75
2019-05-22T17:28:06.603Z,99527.28
2019-05-22T17:30:38.766Z,99527.28
2019-05-22T17:33:11.250Z,99540.88
2019-05-22T17:35:42.372Z,99534.47
2019-05-22T17:38:15.791Z,99533.49
2019-05-22T17:40:46.729Z,99532.66
2019-05-22T17:43:18.554Z,99528.11
2019-05-22T17:45:52.480Z,99540.22
2019-05-22T17:48:24.371Z,99534.61
2019-05-22T17:50:54.812Z,99548.17
2019-05-22T17:53:25.749Z,99550.87
2019-05-22T17:55:57.383Z,99546.60
2019-05-22T17:58:30.173Z,99545.20
2019-05-22T18:01:01.193Z,99552.45
2019-05-22T18:03:32.004Z,99544.86
2019-05-22T18:06:02.877Z,99549.44
2019-05-22T18:08:33.462Z,99548.33
2019-05-22T18:11:07.318Z,99558.03
2019-05-22T18:13:49.442Z,99561.68
2019-05-22T18:16:22.658Z,99562.11
2019-05-22T18:18:52.970Z,99561.59
2019-05-22T18:21:23.612Z,99564.25
2019-05-22T18:23:54.223Z,99563.08
2019-05-22T18:26:24.446Z,99568.21
2019-05-22T18:28:55.295Z,99564.94
2019-05-22T18:31:25.557Z,99565.94
2019-05-22T18:33:56.049Z,99575.22
2019-05-22T18:36:26.350Z,99567.64
2019-05-22T18:38:56.685Z,99574.63
2019-05-22T18:41:31.396Z,99573.35
2019-05-22T18:44:03.846Z,99579.59
2019-05-22T18:46:34.303Z,99580.80
2019-05-22T18:49:04.924Z,99584.88
2019-05-22T18:51:35.279Z,99587.59
2019-05-22T18:54:05.947Z,99579.45
2019-05-22T18:56:37.358Z,99585.78
2019-05-22T18:59:10.141Z,99590.34
2019-05-22T19:01:41.286Z,99595.85
2019-05-22T19:04:12.003Z,99591.55
2019-05-22T19:06:43.442Z,99594.31
2019-05-22T19:09:16.125Z,99600.73
2019-05-22T19:11:46.888Z,99609.30
2019-05-22T19:14:19.025Z,99610.64
2019-05-22T19:16:49.299Z,99614.27
2019-05-22T19:19:20.057Z,99619.93
2019-05-22T19:21:51.420Z,99612.80
2019-05-22T19:24:23.388Z,99618.64
2019-05-22T19:26:54.312Z,99619.97
2019-05-22T19:29:24.694Z,99618.18
2019-05-22T19:31:55.148Z,99614.36
2019-05-22T19:34:25.725Z,99623.39
2019-05-22T19:36:55.949Z,99624.14
2019-05-22T19:39:26.510Z,99629.59
2019-05-22T19:42:02.953Z,99626.96
2019-05-22T19:44:30.008Z,99625.08
2019-05-22T19:47:01.529Z,99625.08
2019-05-22T19:49:32.658Z,99628.09
2019-05-22T19:52:04.311Z,99624.70
2019-05-22T19:54:36.803Z,99623.02
2019-05-22T19:57:08.920Z,99626.96
2019-05-22T19:59:39.805Z,99623.01
2019-05-22T20:02:12.377Z,99623.44
2019-05-22T20:04:43.623Z,99625.14
2019-05-22T20:07:14.385Z,99626.08
2019-05-22T20:09:44.659Z,99633.88
2019-05-22T20:12:15.673Z,99638.59
2019-05-22T20:14:47.288Z,99641.31
2019-05-22T20:17:17.941Z,99629.92
2019-05-22T20:19:49.142Z,99635.75
2019-05-22T20:22:19.830Z,99629.16
2019-05-22T20:24:50.432Z,99637.20
2019-05-22T20:27:21.762Z,99633.70
2019-05-22T20:29:53.090Z,99635.67
2019-05-22T20:32:25.290Z,99640.70
2019-05-22T20:34:55.705Z,99643.13
2019-05-22T20:37:26.860Z,99645.08
2019-05-22T20:39:59.568Z,99643.48
2019-05-22T20:42:32.191Z,99644.76
2019-05-22T20:45:03.053Z,99646.92
2019-05-22T20:47:35.780Z,99654.17
2019-05-22T20:50:09.149Z,99653.58
2019-05-22T20:52:40.121Z,99666.52
2019-05-22T20:55:12.349Z,99666.34
2019-05-22T20:57:43.877Z,99666.46
2019-05-22T21:00:17.308Z,99668.83
2019-05-22T21:02:48.746Z,99667.26
2019-05-22T21:05:23.206Z,99666.76
2019-05-22T21:07:57.317Z,99667.78
2019-05-22T21:10:30.372Z,99670.02
2019-05-22T21:13:02.624Z,99675.58
2019-05-22T21:15:34.188Z,99671.67
2019-05-22T21:18:08.321Z,99671.23
2019-05-22T21:20:53.595Z,99673.43
2019-05-22T21:23:11.275Z,99676.82
2019-05-22T21:25:42.438Z,99673.28
2019-05-22T21:28:13.564Z,99680.78
2019-05-22T21:30:45.493Z,99675.53
2019-05-22T21:33:17.473Z,99681.14
2019-05-22T21:35:48.610Z,99684.12
2019-05-22T21:38:19.719Z,99687.10
2019-05-22T21:40:54.071Z,99678.50
2019-05-22T21:43:24.848Z,99684.56
2019-05-22T21:45:55.235Z,99686.80
2019-05-22T21:48:30.531Z,99685.88
2019-05-22T21:51:02.618Z,99687.23
2019-05-22T21:53:35.054Z,99685.88
2019-05-22T21:56:06.929Z,99685.19
2019-05-22T21:58:39.152Z,99689.08
2019-05-22T22:01:12.100Z,99679.81
2019-05-22T22:03:54.875Z,99680.06
2019-05-22T22:06:26.788Z,99681.98
2019-05-22T22:08:57.010Z,99677.60
2019-05-22T22:11:31.025Z,99679.16
2019-05-22T22:14:03.520Z,99683.34
2019-05-22T22:16:34.841Z,99679.26
2019-05-22T22:19:07.365Z,99683.05
2019-05-22T22:21:39.646Z,99681.76
2019-05-22T22:24:10.986Z,99691.68
2019-05-22T22:26:41.908Z,99691.45
2019-05-22T22:29:15.342Z,99693.77
2019-05-22T22:31:49.158Z,99685.90
2019-05-22T22:34:27.934Z,99683.36
2019-05-22T22:36:59.357Z,99689.61
2019-05-22T22:39:32.133Z,99690.84
2019-05-22T22:42:04.596Z,99689.37
2019-05-22T22:44:36.171Z,99692.08
2019-05-22T22:47:11.489Z,99687.91
2019-05-22T22:49:42.961Z,99683.27
2019-05-22T22:52:15.463Z,99686.38
2019-05-22T22:54:47.946Z,99681.82
2019-05-22T22:57:18.922Z,99686.53
2019-05-22T22:59:49.163Z,99684.22
2019-05-22T23:02:22.930Z,99689.39
2019-05-22T23:04:55.445Z,99700.19
2019-05-22T23:07:30.646Z,99699.13
2019-05-22T23:10:01.996Z,99697.59
2019-05-22T23:12:35.600Z,99703.06
2019-05-22T23:15:07.917Z,99703.75
2019-05-22T23:17:38.807Z,99702.36
2019-05-22T23:20:08.058Z,99700.49
2019-05-22T23:22:38.153Z,99701.34
2019-05-22T23:25:10.466Z,99704.03
2019-05-22T23:27:41.561Z,99706.58
2019-05-22T23:30:14.034Z,99708.89
2019-05-22T23:32:45.750Z,99704.19
2019-05-22T23:35:20.305Z,99704.11
2019-05-22T23:37:52.329Z,99711.05
2019-05-22T23:40:28.150Z,99707.44
2019-05-22T23:43:02.065Z,99709.69
2019-05-22T23:45:34.068Z,99707.69
2019-05-22T23:48:14.546Z,99712.31
2019-05-22T23:50:47.352Z,99710.39
2019-05-22T23:53:18.757Z,99715.88
2019-05-22T23:55:50.314Z,99716.31
2019-05-22T23:58:23.308Z,99719.55
